createdAt,value
2022-08-03T00:00:17.363Z,512.00
2022-08-03T00:00:47.470Z,510.00
2022-08-03T00:01:17.578Z,510.00
2022-08-03T00:01:47.684Z,512.00
2022-08-03T00:02:18.064Z,513.00
2022-08-03T00:02:47.825Z,514.00
2022-08-03T00:03:17.910Z,514.00
2022-08-03T00:03:47.864Z,513.00
2022-08-03T00:04:17.970Z,512.00
2022-08-03T00:04:48.075Z,511.00
2022-08-03T00:05:18.188Z,510.00
2022-08-03T00:06:03.724Z,509.00
2022-08-03T00:06:18.297Z,508.00
2022-08-03T00:06:48.401Z,506.00
2022-08-03T00:07:18.505Z,506.00
2022-08-03T00:07:49.572Z,505.00
2022-08-03T00:08:19.574Z,504.00
2022-08-03T00:08:48.719Z,503.00
2022-08-03T00:09:18.824Z,502.00
2022-08-03T00:09:48.930Z,504.00
2022-08-03T00:10:19.038Z,505.00
2022-08-03T00:10:49.144Z,506.00
2022-08-03T00:11:19.251Z,506.00
2022-08-03T00:11:49.353Z,506.00
2022-08-03T00:12:19.447Z,506.00
2022-08-03T00:12:49.397Z,507.00
2022-08-03T00:13:19.510Z,507.00
2022-08-03T00:13:49.618Z,506.00
2022-08-03T00:14:19.734Z,508.00
2022-08-03T00:14:49.840Z,508.00
2022-08-03T00:15:19.941Z,507.00
2022-08-03T00:15:50.048Z,506.00
2022-08-03T00:16:20.156Z,507.00
2022-08-03T00:16:50.172Z,507.00
2022-08-03T00:17:20.269Z,507.00
2022-08-03T00:17:52.597Z,509.00
2022-08-03T00:18:20.508Z,509.00
2022-08-03T00:18:50.492Z,508.00
2022-08-03T00:19:20.597Z,508.00
2022-08-03T00:19:50.699Z,509.00
2022-08-03T00:20:20.805Z,509.00
2022-08-03T00:20:50.913Z,509.00
2022-08-03T00:21:21.020Z,510.00
2022-08-03T00:21:51.129Z,510.00
2022-08-03T00:22:21.235Z,508.00
2022-08-03T00:22:51.337Z,508.00
2022-08-03T00:23:21.471Z,507.00
2022-08-03T00:23:52.958Z,508.00
2022-08-03T00:24:21.457Z,506.00
2022-08-03T00:24:51.563Z,506.00
2022-08-03T00:25:21.677Z,507.00
2022-08-03T00:25:51.783Z,506.00
2022-08-03T00:26:21.906Z,507.00
2022-08-03T00:26:51.999Z,505.00
2022-08-03T00:27:22.113Z,506.00
2022-08-03T00:27:52.221Z,506.00
2022-08-03T00:28:22.354Z,508.00
2022-08-03T00:28:52.324Z,508.00
2022-08-03T00:29:22.431Z,508.00
2022-08-03T00:29:59.913Z,508.00
2022-08-03T00:30:22.549Z,509.00
2022-08-03T00:30:52.594Z,508.00
2022-08-03T00:31:39.724Z,507.00
2022-08-03T00:31:59.214Z,508.00
2022-08-03T00:32:24.097Z,509.00
2022-08-03T00:32:52.766Z,510.00
2022-08-03T00:33:22.828Z,510.00
2022-08-03T00:33:58.077Z,510.00
2022-08-03T00:34:32.621Z,511.00
2022-08-03T00:34:58.673Z,509.00
2022-08-03T00:35:35.132Z,511.00
2022-08-03T00:35:52.841Z,512.00
2022-08-03T00:36:22.933Z,513.00
2022-08-03T00:36:53.010Z,512.00
2022-08-03T00:37:23.084Z,512.00
2022-08-03T00:37:53.188Z,509.00
2022-08-03T00:38:23.278Z,510.00
2022-08-03T00:38:53.346Z,512.00
2022-08-03T00:39:23.420Z,512.00
2022-08-03T00:39:53.490Z,512.00
2022-08-03T00:40:23.592Z,510.00
2022-08-03T00:40:53.670Z,511.00
2022-08-03T00:41:23.737Z,512.00
2022-08-03T00:41:53.806Z,512.00
2022-08-03T00:42:23.871Z,512.00
2022-08-03T00:42:53.898Z,511.00
2022-08-03T00:43:23.993Z,511.00
2022-08-03T00:43:54.059Z,511.00
2022-08-03T00:44:24.138Z,512.00
2022-08-03T00:44:54.197Z,511.00
2022-08-03T00:45:24.273Z,511.00
2022-08-03T00:45:54.342Z,510.00
2022-08-03T00:46:24.431Z,510.00
2022-08-03T00:46:54.533Z,510.00
2022-08-03T00:47:24.641Z,511.00
2022-08-03T00:47:54.753Z,512.00
2022-08-03T00:48:33.210Z,513.00
2022-08-03T00:48:54.967Z,513.00
2022-08-03T00:49:25.025Z,512.00
2022-08-03T00:49:55.023Z,511.00
2022-08-03T00:50:25.132Z,511.00
2022-08-03T00:50:55.235Z,513.00
2022-08-03T00:51:25.339Z,513.00
2022-08-03T00:51:55.449Z,513.00
2022-08-03T00:52:25.558Z,514.00
2022-08-03T00:52:55.665Z,514.00
2022-08-03T00:53:25.769Z,514.00
2022-08-03T00:53:55.881Z,512.00
2022-08-03T00:54:25.991Z,513.00
2022-08-03T00:54:56.096Z,513.00
2022-08-03T00:55:26.199Z,513.00
2022-08-03T00:55:56.305Z,510.00
2022-08-03T00:56:26.419Z,510.00
2022-08-03T00:56:59.581Z,512.00
2022-08-03T00:57:26.638Z,511.00
2022-08-03T00:57:56.748Z,512.00
2022-08-03T00:58:26.854Z,511.00
2022-08-03T00:58:56.961Z,512.00
2022-08-03T00:59:27.068Z,509.00
2022-08-03T00:59:57.171Z,507.00
2022-08-03T01:00:27.277Z,508.00
2022-08-03T01:00:57.424Z,507.00
2022-08-03T01:01:32.175Z,506.00
2022-08-03T01:01:57.395Z,506.00
2022-08-03T01:02:27.502Z,506.00
2022-08-03T01:02:57.607Z,507.00
2022-08-03T01:03:27.715Z,507.00
2022-08-03T01:03:57.824Z,507.00
2022-08-03T01:04:27.937Z,508.00
2022-08-03T01:04:58.041Z,508.00
2022-08-03T01:05:28.147Z,508.00
2022-08-03T01:05:58.253Z,508.00
2022-08-03T01:06:28.360Z,507.00
2022-08-03T01:06:58.464Z,508.00
2022-08-03T01:07:28.567Z,510.00
2022-08-03T01:07:58.674Z,511.00
2022-08-03T01:08:28.790Z,511.00
2022-08-03T01:08:58.906Z,511.00
2022-08-03T01:09:29.013Z,511.00
2022-08-03T01:09:59.116Z,511.00
2022-08-03T01:10:29.225Z,512.00
2022-08-03T01:10:59.293Z,513.00
2022-08-03T01:11:29.401Z,513.00
2022-08-03T01:12:00.521Z,513.00
2022-08-03T01:12:29.525Z,513.00
2022-08-03T01:12:59.633Z,513.00
2022-08-03T01:14:02.047Z,512.00
2022-08-03T01:14:04.503Z,511.00
2022-08-03T01:14:29.752Z,510.00
2022-08-03T01:14:59.782Z,511.00
2022-08-03T01:15:29.888Z,511.00
2022-08-03T01:15:59.994Z,512.00
2022-08-03T01:16:36.689Z,511.00
2022-08-03T01:17:00.102Z,511.00
2022-08-03T01:17:30.212Z,508.00
2022-08-03T01:18:00.319Z,508.00
2022-08-03T01:18:30.466Z,508.00
2022-08-03T01:19:00.445Z,509.00
2022-08-03T01:19:30.553Z,510.00
2022-08-03T01:20:00.555Z,509.00
2022-08-03T01:20:30.580Z,510.00
2022-08-03T01:21:00.688Z,511.00
2022-08-03T01:21:30.900Z,511.00
2022-08-03T01:22:00.946Z,511.00
2022-08-03T01:22:31.071Z,509.00
2022-08-03T01:23:01.204Z,506.00
2022-08-03T01:23:31.654Z,507.00
2022-08-03T01:24:01.200Z,508.00
2022-08-03T01:24:31.234Z,507.00
2022-08-03T01:25:02.016Z,506.00
2022-08-03T01:25:31.245Z,507.00
2022-08-03T01:26:01.353Z,507.00
2022-08-03T01:26:31.457Z,508.00
2022-08-03T01:27:03.353Z,509.00
2022-08-03T01:27:31.647Z,511.00
2022-08-03T01:28:01.639Z,512.00
2022-08-03T01:28:32.177Z,511.00
2022-08-03T01:29:01.771Z,512.00
2022-08-03T01:29:31.878Z,511.00
2022-08-03T01:30:01.984Z,511.00
2022-08-03T01:30:32.095Z,511.00
2022-08-03T01:31:02.203Z,511.00
2022-08-03T01:31:32.310Z,513.00
2022-08-03T01:33:02.615Z,513.00
2022-08-03T01:33:02.887Z,514.00
2022-08-03T01:33:03.362Z,514.00
2022-08-03T01:33:32.540Z,514.00
2022-08-03T01:34:02.518Z,515.00
2022-08-03T01:34:32.562Z,515.00
2022-08-03T01:35:02.673Z,514.00
2022-08-03T01:35:32.776Z,514.00
2022-08-03T01:36:02.892Z,513.00
2022-08-03T01:36:32.981Z,512.00
2022-08-03T01:37:03.054Z,512.00
2022-08-03T01:37:33.125Z,512.00
2022-08-03T01:38:03.193Z,509.00
2022-08-03T01:38:33.275Z,508.00
2022-08-03T01:39:03.347Z,509.00
2022-08-03T01:39:33.414Z,510.00
2022-08-03T01:40:03.480Z,510.00
2022-08-03T01:40:33.548Z,511.00
2022-08-03T01:41:03.621Z,511.00
2022-08-03T01:41:33.619Z,511.00
2022-08-03T01:42:03.685Z,512.00
2022-08-03T01:42:33.753Z,513.00
2022-08-03T01:43:03.824Z,512.00
2022-08-03T01:44:26.193Z,512.00
2022-08-03T01:44:27.384Z,513.00
2022-08-03T01:44:34.007Z,514.00
2022-08-03T01:45:04.068Z,514.00
2022-08-03T01:45:34.446Z,515.00
2022-08-03T01:46:04.177Z,517.00
2022-08-03T01:46:34.264Z,518.00
2022-08-03T01:47:04.285Z,517.00
2022-08-03T01:47:34.386Z,517.00
2022-08-03T01:48:04.500Z,516.00
2022-08-03T01:48:34.638Z,517.00
2022-08-03T01:49:09.180Z,516.00
2022-08-03T01:49:34.637Z,516.00
2022-08-03T01:50:04.736Z,516.00
2022-08-03T01:50:34.841Z,516.00
2022-08-03T01:51:04.947Z,516.00
2022-08-03T01:52:00.836Z,514.00
2022-08-03T01:52:05.464Z,513.00
2022-08-03T01:52:35.168Z,514.00
2022-08-03T01:53:05.274Z,514.00
2022-08-03T01:53:35.440Z,515.00
2022-08-03T01:54:05.418Z,516.00
2022-08-03T01:54:35.525Z,516.00
2022-08-03T01:55:05.632Z,513.00
2022-08-03T01:55:35.734Z,512.00
2022-08-03T01:56:05.851Z,512.00
2022-08-03T01:56:35.844Z,511.00
2022-08-03T01:57:05.955Z,513.00
2022-08-03T01:57:36.059Z,513.00
2022-08-03T01:58:06.908Z,514.00
2022-08-03T01:58:36.076Z,513.00
2022-08-03T01:59:06.059Z,514.00
2022-08-03T01:59:36.164Z,514.00
2022-08-03T02:00:06.275Z,514.00
2022-08-03T02:00:36.393Z,512.00
2022-08-03T02:01:06.597Z,513.00
2022-08-03T02:02:27.704Z,511.00
2022-08-03T02:02:28.416Z,510.00
2022-08-03T02:02:36.905Z,510.00
2022-08-03T02:03:06.684Z,508.00
2022-08-03T02:03:36.835Z,508.00
2022-08-03T02:04:06.816Z,506.00
2022-08-03T02:04:36.922Z,507.00
2022-08-03T02:05:11.013Z,509.00
2022-08-03T02:05:37.139Z,510.00
2022-08-03T02:07:01.601Z,509.00
2022-08-03T02:07:01.812Z,509.00
2022-08-03T02:07:07.251Z,508.00
2022-08-03T02:07:37.354Z,509.00
2022-08-03T02:08:07.462Z,508.00
2022-08-03T02:08:37.599Z,508.00
2022-08-03T02:09:07.585Z,508.00
2022-08-03T02:09:37.691Z,509.00
2022-08-03T02:10:07.796Z,508.00
2022-08-03T02:10:37.901Z,507.00
2022-08-03T02:11:08.007Z,507.00
2022-08-03T02:11:38.111Z,506.00
2022-08-03T02:12:08.218Z,505.00
2022-08-03T02:12:38.321Z,504.00
2022-08-03T02:13:08.377Z,505.00
2022-08-03T02:13:38.521Z,507.00
2022-08-03T02:14:08.506Z,510.00
2022-08-03T02:14:38.609Z,510.00
2022-08-03T02:15:08.712Z,510.00
2022-08-03T02:15:38.733Z,510.00
2022-08-03T02:16:08.843Z,512.00
2022-08-03T02:16:38.946Z,512.00
2022-08-03T02:17:09.049Z,512.00
2022-08-03T02:17:40.313Z,511.00
2022-08-03T02:18:09.228Z,511.00
2022-08-03T02:18:39.370Z,511.00
2022-08-03T02:19:09.349Z,513.00
2022-08-03T02:19:39.458Z,511.00
2022-08-03T02:20:09.576Z,510.00
2022-08-03T02:20:39.676Z,509.00
2022-08-03T02:21:10.998Z,511.00
2022-08-03T02:21:56.510Z,510.00
2022-08-03T02:22:09.900Z,511.00
2022-08-03T02:22:40.006Z,511.00
2022-08-03T02:23:10.113Z,511.00
2022-08-03T02:23:40.264Z,511.00
2022-08-03T02:24:10.245Z,510.00
2022-08-03T02:24:40.349Z,512.00
2022-08-03T02:25:10.460Z,512.00
2022-08-03T02:25:40.555Z,511.00
2022-08-03T02:26:10.661Z,512.00
2022-08-03T02:26:40.766Z,512.00
2022-08-03T02:27:10.874Z,513.00
2022-08-03T02:27:43.634Z,512.00
2022-08-03T02:28:11.054Z,513.00
2022-08-03T02:28:41.175Z,513.00
2022-08-03T02:29:11.158Z,513.00
2022-08-03T02:29:41.264Z,512.00
2022-08-03T02:30:11.375Z,513.00
2022-08-03T02:30:41.483Z,511.00
2022-08-03T02:31:11.591Z,510.00
2022-08-03T02:31:41.693Z,512.00
2022-08-03T02:32:11.803Z,511.00
2022-08-03T02:32:41.907Z,511.00
2022-08-03T02:33:12.012Z,512.00
2022-08-03T02:33:42.132Z,510.00
2022-08-03T02:34:12.116Z,510.00
2022-08-03T02:34:42.227Z,509.00
2022-08-03T02:35:12.333Z,507.00
2022-08-03T02:35:42.440Z,507.00
2022-08-03T02:36:12.543Z,509.00
2022-08-03T02:37:21.653Z,530.00
2022-08-03T02:37:51.720Z,522.00
2022-08-03T02:38:21.792Z,519.00
2022-08-03T02:38:51.855Z,520.00
2022-08-03T02:39:21.931Z,518.00
2022-08-03T02:39:52.018Z,519.00
2022-08-03T02:40:22.086Z,520.00
2022-08-03T02:40:52.160Z,522.00
2022-08-03T02:41:22.221Z,523.00
2022-08-03T02:41:52.233Z,523.00
2022-08-03T02:42:22.297Z,522.00
2022-08-03T02:42:52.369Z,522.00
2022-08-03T02:43:22.434Z,522.00
2022-08-03T02:44:06.916Z,522.00
2022-08-03T02:44:22.609Z,522.00
2022-08-03T02:44:52.681Z,521.00
2022-08-03T02:45:22.749Z,523.00
2022-08-03T02:45:52.813Z,524.00
2022-08-03T02:46:22.886Z,523.00
2022-08-03T02:46:52.956Z,524.00
2022-08-03T02:47:23.066Z,523.00
2022-08-03T02:47:54.866Z,522.00
2022-08-03T02:48:23.170Z,523.00
2022-08-03T02:48:53.351Z,523.00
2022-08-03T02:49:40.995Z,521.00
2022-08-03T02:49:53.399Z,521.00
2022-08-03T02:50:23.525Z,521.00
2022-08-03T02:50:53.393Z,519.00
2022-08-03T02:51:23.506Z,519.00
2022-08-03T02:51:53.614Z,519.00
2022-08-03T02:52:23.719Z,517.00
2022-08-03T02:52:53.824Z,518.00
2022-08-03T02:53:23.930Z,518.00
2022-08-03T02:53:54.039Z,518.00
2022-08-03T02:54:24.141Z,518.00
2022-08-03T02:54:54.248Z,519.00
2022-08-03T02:55:24.356Z,519.00
2022-08-03T02:55:54.464Z,520.00
2022-08-03T02:56:24.571Z,517.00
2022-08-03T02:56:54.683Z,516.00
2022-08-03T02:57:24.780Z,518.00
2022-08-03T02:57:54.885Z,518.00
2022-08-03T02:58:24.987Z,521.00
2022-08-03T02:58:55.098Z,521.00
2022-08-03T02:59:25.204Z,522.00
2022-08-03T02:59:55.312Z,521.00
2022-08-03T03:00:27.853Z,519.00
2022-08-03T03:00:55.583Z,520.00
2022-08-03T03:01:25.499Z,520.00
2022-08-03T03:01:55.588Z,521.00
2022-08-03T03:02:25.696Z,521.00
2022-08-03T03:02:55.800Z,519.00
2022-08-03T03:03:25.907Z,518.00
2022-08-03T03:03:55.940Z,518.00
2022-08-03T03:04:29.333Z,520.00
2022-08-03T03:05:52.134Z,521.00
2022-08-03T03:05:55.894Z,518.00
2022-08-03T03:05:57.629Z,518.00
2022-08-03T03:06:26.085Z,518.00
2022-08-03T03:06:56.182Z,519.00
2022-08-03T03:07:26.289Z,518.00
2022-08-03T03:07:56.308Z,519.00
2022-08-03T03:08:28.917Z,518.00
2022-08-03T03:08:59.627Z,518.00
2022-08-03T03:09:26.617Z,517.00
2022-08-03T03:09:56.628Z,517.00
2022-08-03T03:10:26.740Z,517.00
2022-08-03T03:10:56.842Z,517.00
2022-08-03T03:11:26.952Z,518.00
2022-08-03T03:11:57.059Z,519.00
2022-08-03T03:12:27.159Z,521.00
2022-08-03T03:12:57.273Z,521.00
2022-08-03T03:13:27.371Z,524.00
2022-08-03T03:13:57.478Z,524.00
2022-08-03T03:14:33.979Z,522.00
2022-08-03T03:14:57.593Z,520.00
2022-08-03T03:15:27.702Z,521.00
2022-08-03T03:15:57.809Z,520.00
2022-08-03T03:16:27.919Z,519.00
2022-08-03T03:16:58.038Z,519.00
2022-08-03T03:17:28.061Z,519.00
2022-08-03T03:17:58.167Z,519.00
2022-08-03T03:18:28.275Z,521.00
2022-08-03T03:18:58.381Z,521.00
2022-08-03T03:19:28.495Z,520.00
2022-08-03T03:19:58.599Z,519.00
2022-08-03T03:20:29.981Z,518.00
2022-08-03T03:20:58.779Z,519.00
2022-08-03T03:21:28.884Z,520.00
2022-08-03T03:21:58.994Z,518.00
2022-08-03T03:22:29.102Z,517.00
2022-08-03T03:22:59.204Z,517.00
2022-08-03T03:23:29.313Z,516.00
2022-08-03T03:23:59.419Z,515.00
2022-08-03T03:24:29.547Z,515.00
2022-08-03T03:24:59.527Z,516.00
2022-08-03T03:25:29.642Z,517.00
2022-08-03T03:25:59.745Z,516.00
2022-08-03T03:26:29.854Z,518.00
2022-08-03T03:26:59.962Z,517.00
2022-08-03T03:27:30.066Z,517.00
2022-08-03T03:28:00.174Z,516.00
2022-08-03T03:28:30.282Z,519.00
2022-08-03T03:29:00.391Z,520.00
2022-08-03T03:29:30.503Z,519.00
2022-08-03T03:30:00.503Z,518.00
2022-08-03T03:30:30.616Z,517.00
2022-08-03T03:31:00.735Z,517.00
2022-08-03T03:31:30.835Z,516.00
2022-08-03T03:32:01.288Z,516.00
2022-08-03T03:32:31.048Z,516.00
2022-08-03T03:33:01.147Z,515.00
2022-08-03T03:33:31.254Z,515.00
2022-08-03T03:34:01.358Z,516.00
2022-08-03T03:34:31.469Z,517.00
2022-08-03T03:35:01.580Z,517.00
2022-08-03T03:35:31.689Z,517.00
2022-08-03T03:36:01.698Z,516.00
2022-08-03T03:36:31.804Z,515.00
2022-08-03T03:37:01.891Z,515.00
2022-08-03T03:37:31.970Z,514.00
2022-08-03T03:38:02.042Z,514.00
2022-08-03T03:38:32.112Z,514.00
2022-08-03T03:39:15.419Z,515.00
2022-08-03T03:39:32.297Z,516.00
2022-08-03T03:40:02.367Z,514.00
2022-08-03T03:40:32.440Z,514.00
2022-08-03T03:41:02.508Z,513.00
2022-08-03T03:41:33.904Z,514.00
2022-08-03T03:42:02.605Z,513.00
2022-08-03T03:42:32.672Z,513.00
2022-08-03T03:43:02.736Z,512.00
2022-08-03T03:43:32.806Z,513.00
2022-08-03T03:44:02.882Z,513.00
2022-08-03T03:44:32.959Z,513.00
2022-08-03T03:45:03.026Z,513.00
2022-08-03T03:45:33.094Z,513.00
2022-08-03T03:46:03.162Z,514.00
2022-08-03T03:46:33.235Z,514.00
2022-08-03T03:47:03.320Z,514.00
2022-08-03T03:47:33.424Z,511.00
2022-08-03T03:48:03.529Z,512.00
2022-08-03T03:48:33.642Z,513.00
2022-08-03T03:49:03.824Z,513.00
2022-08-03T03:49:34.022Z,512.00
2022-08-03T03:50:03.858Z,511.00
2022-08-03T03:50:33.967Z,511.00
2022-08-03T03:51:03.967Z,510.00
2022-08-03T03:51:34.077Z,510.00
2022-08-03T03:52:04.182Z,511.00
2022-08-03T03:52:34.291Z,512.00
2022-08-03T03:53:04.398Z,512.00
2022-08-03T03:53:34.506Z,512.00
2022-08-03T03:54:04.611Z,512.00
2022-08-03T03:54:34.735Z,512.00
2022-08-03T03:55:04.833Z,512.00
2022-08-03T03:55:34.935Z,512.00
2022-08-03T03:56:04.948Z,512.00
2022-08-03T03:56:35.076Z,511.00
2022-08-03T03:57:05.176Z,513.00
2022-08-03T03:57:35.294Z,512.00
2022-08-03T03:58:05.384Z,511.00
2022-08-03T03:58:35.490Z,511.00
2022-08-03T03:59:05.598Z,513.00
2022-08-03T03:59:36.063Z,514.00
2022-08-03T04:00:05.766Z,515.00
2022-08-03T04:00:35.936Z,518.00
2022-08-03T04:01:06.156Z,519.00
2022-08-03T04:01:36.021Z,518.00
2022-08-03T04:02:06.127Z,517.00
2022-08-03T04:02:36.234Z,516.00
2022-08-03T04:03:06.341Z,516.00
2022-08-03T04:03:36.431Z,516.00
2022-08-03T04:04:06.535Z,515.00
2022-08-03T04:04:36.647Z,515.00
2022-08-03T04:05:06.772Z,515.00
2022-08-03T04:05:36.865Z,515.00
2022-08-03T04:06:06.970Z,514.00
2022-08-03T04:06:37.071Z,514.00
2022-08-03T04:07:07.175Z,515.00
2022-08-03T04:07:37.282Z,517.00
2022-08-03T04:08:07.393Z,516.00
2022-08-03T04:08:37.499Z,517.00
2022-08-03T04:09:07.616Z,519.00
2022-08-03T04:09:37.716Z,519.00
2022-08-03T04:10:14.754Z,519.00
2022-08-03T04:10:37.837Z,518.00
2022-08-03T04:11:07.945Z,517.00
2022-08-03T04:11:38.051Z,516.00
2022-08-03T04:12:08.154Z,517.00
2022-08-03T04:12:38.263Z,517.00
2022-08-03T04:13:08.269Z,517.00
2022-08-03T04:13:38.371Z,517.00
2022-08-03T04:14:08.476Z,518.00
2022-08-03T04:14:38.583Z,516.00
2022-08-03T04:15:08.696Z,515.00
2022-08-03T04:15:38.692Z,515.00
2022-08-03T04:16:08.796Z,517.00
2022-08-03T04:16:43.440Z,518.00
2022-08-03T04:17:08.904Z,518.00
2022-08-03T04:17:39.017Z,517.00
2022-08-03T04:18:09.129Z,516.00
2022-08-03T04:18:39.232Z,518.00
2022-08-03T04:19:09.341Z,517.00
2022-08-03T04:19:39.451Z,517.00
2022-08-03T04:20:09.563Z,517.00
2022-08-03T04:20:39.669Z,517.00
2022-08-03T04:21:09.769Z,517.00
2022-08-03T04:21:39.893Z,520.00
2022-08-03T04:22:09.942Z,522.00
2022-08-03T04:22:39.920Z,523.00
2022-08-03T04:23:13.697Z,527.00
2022-08-03T04:23:40.026Z,529.00
2022-08-03T04:24:10.135Z,530.00
2022-08-03T04:24:40.274Z,533.00
2022-08-03T04:25:10.259Z,535.00
2022-08-03T04:25:40.358Z,534.00
2022-08-03T04:26:10.459Z,535.00
2022-08-03T04:26:40.564Z,537.00
2022-08-03T04:27:10.670Z,538.00
2022-08-03T04:27:40.782Z,536.00
2022-08-03T04:28:30.468Z,535.00
2022-08-03T04:28:40.884Z,535.00
2022-08-03T04:29:10.996Z,535.00
2022-08-03T04:29:46.378Z,535.00
2022-08-03T04:30:11.195Z,536.00
2022-08-03T04:30:41.212Z,537.00
2022-08-03T04:31:11.211Z,536.00
2022-08-03T04:31:41.316Z,535.00
2022-08-03T04:32:11.431Z,534.00
2022-08-03T04:32:45.728Z,533.00
2022-08-03T04:33:11.628Z,532.00
2022-08-03T04:33:41.656Z,534.00
2022-08-03T04:34:11.757Z,535.00
2022-08-03T04:34:41.862Z,535.00
2022-08-03T04:35:11.982Z,535.00
2022-08-03T04:36:02.222Z,535.00
2022-08-03T04:36:12.061Z,536.00
2022-08-03T04:36:42.178Z,536.00
2022-08-03T04:37:12.258Z,533.00
2022-08-03T04:37:42.330Z,549.00
2022-08-03T04:38:12.396Z,547.00
2022-08-03T04:38:42.475Z,546.00
2022-08-03T04:39:12.539Z,545.00
2022-08-03T04:39:42.618Z,545.00
2022-08-03T04:40:12.710Z,545.00
2022-08-03T04:40:42.785Z,545.00
2022-08-03T04:41:12.861Z,546.00
2022-08-03T04:42:07.417Z,546.00
2022-08-03T04:42:13.024Z,547.00
2022-08-03T04:42:43.097Z,549.00
2022-08-03T04:43:13.165Z,553.00
2022-08-03T04:43:43.234Z,556.00
2022-08-03T04:44:13.305Z,556.00
2022-08-03T04:44:43.381Z,557.00
2022-08-03T04:45:13.462Z,557.00
2022-08-03T04:45:43.530Z,558.00
2022-08-03T04:46:13.608Z,558.00
2022-08-03T04:46:46.734Z,560.00
2022-08-03T04:47:13.684Z,561.00
2022-08-03T04:47:43.785Z,562.00
2022-08-03T04:48:13.893Z,562.00
2022-08-03T04:48:44.854Z,563.00
2022-08-03T04:49:14.136Z,564.00
2022-08-03T04:49:44.175Z,563.00
2022-08-03T04:50:18.149Z,562.00
2022-08-03T04:50:44.169Z,562.00
2022-08-03T04:51:14.276Z,559.00
2022-08-03T04:51:44.397Z,558.00
2022-08-03T04:52:14.754Z,557.00
2022-08-03T04:52:44.446Z,554.00
2022-08-03T04:53:14.551Z,553.00
2022-08-03T04:53:44.660Z,553.00
2022-08-03T04:54:14.784Z,554.00
2022-08-03T04:54:45.923Z,552.00
2022-08-03T04:55:14.940Z,551.00
2022-08-03T04:55:44.912Z,549.00
2022-08-03T04:56:15.021Z,549.00
2022-08-03T04:56:45.127Z,549.00
2022-08-03T04:57:22.385Z,547.00
2022-08-03T04:57:45.240Z,548.00
2022-08-03T04:58:15.351Z,547.00
2022-08-03T04:58:45.463Z,546.00
2022-08-03T04:59:15.450Z,546.00
2022-08-03T04:59:45.574Z,546.00
2022-08-03T05:00:15.561Z,534.00
2022-08-03T05:00:45.855Z,546.00
2022-08-03T05:01:15.759Z,549.00
2022-08-03T05:01:45.822Z,551.00
2022-08-03T05:02:15.929Z,551.00
2022-08-03T05:02:45.768Z,551.00
2022-08-03T05:03:20.274Z,551.00
2022-08-03T05:03:45.877Z,549.00
2022-08-03T05:04:15.978Z,548.00
2022-08-03T05:04:46.084Z,548.00
2022-08-03T05:05:16.191Z,546.00
2022-08-03T05:05:50.311Z,546.00
2022-08-03T05:06:16.371Z,544.00
2022-08-03T05:06:48.198Z,544.00
2022-08-03T05:07:16.505Z,542.00
2022-08-03T05:07:46.613Z,540.00
2022-08-03T05:08:16.682Z,540.00
2022-08-03T05:08:47.024Z,540.00
2022-08-03T05:09:33.484Z,538.00
2022-08-03T05:09:52.665Z,538.00
2022-08-03T05:10:16.951Z,539.00
2022-08-03T05:10:46.800Z,541.00
2022-08-03T05:11:16.919Z,542.00
2022-08-03T05:11:46.904Z,542.00
2022-08-03T05:12:17.288Z,542.00
2022-08-03T05:12:47.037Z,543.00
2022-08-03T05:13:17.128Z,542.00
2022-08-03T05:13:47.238Z,542.00
2022-08-03T05:14:17.343Z,541.00
2022-08-03T05:14:47.354Z,539.00
2022-08-03T05:15:17.460Z,537.00
2022-08-03T05:15:47.561Z,536.00
2022-08-03T05:16:17.684Z,536.00
2022-08-03T05:16:47.686Z,534.00
2022-08-03T05:17:17.703Z,534.00
2022-08-03T05:17:47.803Z,534.00
2022-08-03T05:18:17.908Z,533.00
2022-08-03T05:18:48.008Z,534.00
2022-08-03T05:19:18.119Z,535.00
2022-08-03T05:19:48.235Z,536.00
2022-08-03T05:20:19.135Z,536.00
2022-08-03T05:20:48.261Z,536.00
2022-08-03T05:21:18.248Z,537.00
2022-08-03T05:21:52.049Z,535.00
2022-08-03T05:22:18.455Z,535.00
2022-08-03T05:22:48.556Z,534.00
2022-08-03T05:23:18.669Z,532.00
2022-08-03T05:23:48.767Z,531.00
2022-08-03T05:24:18.880Z,530.00
2022-08-03T05:24:48.986Z,529.00
2022-08-03T05:25:19.853Z,527.00
2022-08-03T05:25:49.761Z,524.00
2022-08-03T05:26:19.204Z,524.00
2022-08-03T05:26:49.202Z,525.00
2022-08-03T05:27:19.338Z,525.00
2022-08-03T05:27:49.310Z,525.00
2022-08-03T05:28:19.412Z,525.00
2022-08-03T05:28:50.755Z,524.00
2022-08-03T05:29:19.620Z,524.00
2022-08-03T05:29:49.713Z,522.00
2022-08-03T05:30:30.359Z,523.00
2022-08-03T05:30:49.864Z,522.00
2022-08-03T05:31:19.959Z,522.00
2022-08-03T05:31:50.063Z,522.00
2022-08-03T05:32:20.492Z,521.00
2022-08-03T05:32:50.233Z,519.00
2022-08-03T05:33:20.325Z,518.00
2022-08-03T05:33:50.433Z,517.00
2022-08-03T05:34:20.538Z,519.00
2022-08-03T05:34:50.646Z,521.00
2022-08-03T05:36:01.033Z,522.00
2022-08-03T05:36:01.295Z,523.00
2022-08-03T05:36:20.770Z,521.00
2022-08-03T05:36:50.873Z,524.00
2022-08-03T05:37:20.949Z,522.00
2022-08-03T05:37:54.542Z,521.00
2022-08-03T05:38:28.025Z,522.00
2022-08-03T05:38:51.219Z,522.00
2022-08-03T05:39:21.288Z,521.00
2022-08-03T05:39:51.363Z,521.00
2022-08-03T05:40:21.456Z,521.00
2022-08-03T05:40:56.857Z,522.00
2022-08-03T05:41:37.461Z,521.00
2022-08-03T05:41:51.729Z,522.00
2022-08-03T05:42:21.796Z,523.00
2022-08-03T05:42:51.866Z,523.00
2022-08-03T05:43:21.938Z,522.00
2022-08-03T05:43:52.008Z,523.00
2022-08-03T05:44:22.080Z,522.00
2022-08-03T05:44:52.139Z,520.00
2022-08-03T05:45:25.416Z,516.00
2022-08-03T05:46:11.708Z,514.00
2022-08-03T05:46:22.402Z,512.00
2022-08-03T05:46:52.483Z,513.00
2022-08-03T05:47:22.590Z,513.00
2022-08-03T05:47:52.606Z,514.00
2022-08-03T05:48:22.590Z,515.00
2022-08-03T05:48:52.751Z,517.00
2022-08-03T05:49:22.780Z,520.00
2022-08-03T05:49:52.760Z,524.00
2022-08-03T05:50:22.884Z,525.00
2022-08-03T05:50:52.860Z,524.00
2022-08-03T05:51:22.971Z,524.00
2022-08-03T05:52:00.324Z,524.00
2022-08-03T05:52:23.205Z,525.00
2022-08-03T05:52:53.142Z,526.00
2022-08-03T05:53:23.246Z,526.00
2022-08-03T05:53:53.629Z,525.00
2022-08-03T05:54:23.350Z,527.00
2022-08-03T05:54:56.604Z,534.00
2022-08-03T05:55:23.462Z,536.00
2022-08-03T05:55:56.962Z,534.00
2022-08-03T05:56:23.451Z,514.00
2022-08-03T05:56:53.551Z,560.00
2022-08-03T05:57:23.657Z,548.00
2022-08-03T05:57:55.282Z,542.00
2022-08-03T05:58:23.797Z,537.00
2022-08-03T05:58:53.800Z,533.00
2022-08-03T05:59:38.253Z,532.00
2022-08-03T05:59:57.898Z,530.00
2022-08-03T06:00:24.063Z,529.00
2022-08-03T06:00:54.069Z,524.00
2022-08-03T06:01:24.281Z,522.00
2022-08-03T06:01:54.319Z,519.00
2022-08-03T06:02:24.322Z,522.00
2022-08-03T06:02:54.425Z,520.00
2022-08-03T06:03:24.532Z,518.00
2022-08-03T06:03:54.641Z,530.00
2022-08-03T06:04:24.752Z,529.00
2022-08-03T06:04:54.860Z,529.00
2022-08-03T06:05:24.979Z,527.00
2022-08-03T06:05:59.992Z,530.00
2022-08-03T06:06:28.240Z,538.00
2022-08-03T06:06:55.048Z,538.00
2022-08-03T06:07:25.027Z,535.00
2022-08-03T06:07:55.139Z,533.00
2022-08-03T06:08:25.247Z,534.00
2022-08-03T06:08:55.371Z,533.00
2022-08-03T06:09:25.398Z,533.00
2022-08-03T06:10:35.775Z,534.00
2022-08-03T06:10:36.190Z,534.00
2022-08-03T06:10:55.455Z,525.00
2022-08-03T06:11:25.558Z,522.00
2022-08-03T06:11:55.665Z,521.00
2022-08-03T06:12:25.783Z,522.00
2022-08-03T06:12:55.889Z,525.00
2022-08-03T06:13:26.004Z,524.00
2022-08-03T06:13:56.105Z,526.00
2022-08-03T06:14:26.236Z,528.00
2022-08-03T06:14:56.239Z,530.00
2022-08-03T06:15:26.366Z,533.00
2022-08-03T06:15:56.343Z,533.00